sensor_id;sensor_type;location;lat;lon;timestamp;P1;durP1;ratioP1;P2;durP2;ratioP2
40044;SDS011;25735;48.122;11.422;2022-11-30T00:02:21;33.75;;;20.10;;
40044;SDS011;25735;48.122;11.422;2022-11-30T00:04:46;41.00;;;21.70;;
40044;SDS011;25735;48.122;11.422;2022-11-30T00:07:11;36.67;;;21.75;;
40044;SDS011;25735;48.122;11.422;2022-11-30T00:09:36;34.40;;;19.95;;
40044;SDS011;25735;48.122;11.422;2022-11-30T00:12:02;39.97;;;23.27;;
40044;SDS011;25735;48.122;11.422;2022-11-30T00:14:27;36.55;;;21.10;;
40044;SDS011;25735;48.122;11.422;2022-11-30T00:16:53;35.40;;;21.42;;
40044;SDS011;25735;48.122;11.422;2022-11-30T00:19:18;38.70;;;22.80;;
40044;SDS011;25735;48.122;11.422;2022-11-30T00:21:43;36.20;;;22.08;;
40044;SDS011;25735;48.122;11.422;2022-11-30T00:24:08;38.47;;;22.13;;
40044;SDS011;25735;48.122;11.422;2022-11-30T00:26:34;35.17;;;21.60;;
40044;SDS011;25735;48.122;11.422;2022-11-30T00:28:59;34.53;;;19.92;;
40044;SDS011;25735;48.122;11.422;2022-11-30T00:31:24;34.78;;;19.42;;
40044;SDS011;25735;48.122;11.422;2022-11-30T00:33:50;32.25;;;18.90;;
40044;SDS011;25735;48.122;11.422;2022-11-30T00:36:16;34.58;;;19.30;;
40044;SDS011;25735;48.122;11.422;2022-11-30T00:38:43;30.27;;;17.85;;
40044;SDS011;25735;48.122;11.422;2022-11-30T00:41:09;31.50;;;17.40;;
40044;SDS011;25735;48.122;11.422;2022-11-30T00:43:35;34.13;;;19.20;;
40044;SDS011;25735;48.122;11.422;2022-11-30T00:46:00;32.53;;;18.50;;
40044;SDS011;25735;48.122;11.422;2022-11-30T00:48:26;32.65;;;19.30;;
40044;SDS011;25735;48.122;11.422;2022-11-30T00:50:51;34.42;;;18.67;;
40044;SDS011;25735;48.122;11.422;2022-11-30T00:53:17;34.72;;;19.90;;
40044;SDS011;25735;48.122;11.422;2022-11-30T00:55:43;30.02;;;17.85;;
40044;SDS011;25735;48.122;11.422;2022-11-30T00:58:08;33.20;;;17.42;;
40044;SDS011;25735;48.122;11.422;2022-11-30T01:00:34;32.35;;;18.27;;
40044;SDS011;25735;48.122;11.422;2022-11-30T01:02:59;29.05;;;16.23;;
40044;SDS011;25735;48.122;11.422;2022-11-30T01:05:25;28.45;;;17.67;;
40044;SDS011;25735;48.122;11.422;2022-11-30T01:07:50;32.15;;;17.42;;
40044;SDS011;25735;48.122;11.422;2022-11-30T01:10:16;31.85;;;16.85;;
40044;SDS011;25735;48.122;11.422;2022-11-30T01:12:41;29.48;;;16.88;;
40044;SDS011;25735;48.122;11.422;2022-11-30T01:15:06;29.38;;;17.10;;
40044;SDS011;25735;48.122;11.422;2022-11-30T01:17:32;34.10;;;18.58;;
40044;SDS011;25735;48.122;11.422;2022-11-30T01:19:57;27.52;;;17.05;;
40044;SDS011;25735;48.122;11.422;2022-11-30T01:22:23;34.20;;;18.92;;
40044;SDS011;25735;48.122;11.422;2022-11-30T01:24:48;32.00;;;18.05;;
40044;SDS011;25735;48.122;11.422;2022-11-30T01:27:13;25.85;;;15.77;;
40044;SDS011;25735;48.122;11.422;2022-11-30T01:29:39;29.42;;;17.55;;
40044;SDS011;25735;48.122;11.422;2022-11-30T01:32:04;30.98;;;17.15;;
40044;SDS011;25735;48.122;11.422;2022-11-30T01:34:29;29.95;;;16.70;;
40044;SDS011;25735;48.122;11.422;2022-11-30T01:36:55;30.80;;;16.40;;
40044;SDS011;25735;48.122;11.422;2022-11-30T01:39:20;29.25;;;17.15;;
40044;SDS011;25735;48.122;11.422;2022-11-30T01:41:45;27.83;;;15.32;;
40044;SDS011;25735;48.122;11.422;2022-11-30T01:46:44;26.20;;;14.45;;
40044;SDS011;25735;48.122;11.422;2022-11-30T01:49:14;27.08;;;15.32;;
40044;SDS011;25735;48.122;11.422;2022-11-30T01:51:52;31.02;;;18.77;;
40044;SDS011;25735;48.122;11.422;2022-11-30T01:54:25;29.20;;;16.02;;
40044;SDS011;25735;48.122;11.422;2022-11-30T01:56:56;29.33;;;19.33;;
40044;SDS011;25735;48.122;11.422;2022-11-30T01:59:25;27.48;;;16.25;;
40044;SDS011;25735;48.122;11.422;2022-11-30T02:01:51;31.23;;;17.25;;
40044;SDS011;25735;48.122;11.422;2022-11-30T02:04:19;33.25;;;18.52;;
40044;SDS011;25735;48.122;11.422;2022-11-30T02:06:53;32.58;;;18.75;;
40044;SDS011;25735;48.122;11.422;2022-11-30T02:09:19;31.45;;;17.25;;
40044;SDS011;25735;48.122;11.422;2022-11-30T02:11:46;30.40;;;17.67;;
40044;SDS011;25735;48.122;11.422;2022-11-30T02:25:27;32.15;;;18.40;;
40044;SDS011;25735;48.122;11.422;2022-11-30T02:30:51;34.63;;;17.60;;
40044;SDS011;25735;48.122;11.422;2022-11-30T02:33:18;36.95;;;20.02;;
40044;SDS011;25735;48.122;11.422;2022-11-30T02:35:48;33.33;;;18.55;;
40044;SDS011;25735;48.122;11.422;2022-11-30T02:38:17;33.88;;;18.80;;
40044;SDS011;25735;48.122;11.422;2022-11-30T02:40:45;38.13;;;19.75;;
40044;SDS011;25735;48.122;11.422;2022-11-30T02:43:11;30.25;;;18.40;;
40044;SDS011;25735;48.122;11.422;2022-11-30T02:48:22;33.05;;;19.27;;
40044;SDS011;25735;48.122;11.422;2022-11-30T02:50:55;35.13;;;20.55;;
40044;SDS011;25735;48.122;11.422;2022-11-30T02:53:23;31.83;;;19.48;;
40044;SDS011;25735;48.122;11.422;2022-11-30T02:55:49;34.08;;;18.25;;
40044;SDS011;25735;48.122;11.422;2022-11-30T02:58:15;36.13;;;19.75;;
40044;SDS011;25735;48.122;11.422;2022-11-30T03:00:41;36.70;;;18.38;;
40044;SDS011;25735;48.122;11.422;2022-11-30T03:03:06;33.80;;;19.38;;
40044;SDS011;25735;48.122;11.422;2022-11-30T03:05:31;33.50;;;19.70;;
40044;SDS011;25735;48.122;11.422;2022-11-30T03:07:57;37.80;;;20.17;;
40044;SDS011;25735;48.122;11.422;2022-11-30T03:10:22;37.08;;;22.52;;
40044;SDS011;25735;48.122;11.422;2022-11-30T03:12:47;38.40;;;20.13;;
40044;SDS011;25735;48.122;11.422;2022-11-30T03:15:13;38.55;;;20.75;;
40044;SDS011;25735;48.122;11.422;2022-11-30T03:17:38;37.17;;;20.75;;
40044;SDS011;25735;48.122;11.422;2022-11-30T03:20:03;41.22;;;22.42;;
40044;SDS011;25735;48.122;11.422;2022-11-30T03:22:29;41.30;;;20.67;;
40044;SDS011;25735;48.122;11.422;2022-11-30T03:24:54;40.63;;;21.13;;
40044;SDS011;25735;48.122;11.422;2022-11-30T03:27:19;37.45;;;20.30;;
40044;SDS011;25735;48.122;11.422;2022-11-30T03:29:45;39.42;;;21.38;;
40044;SDS011;25735;48.122;11.422;2022-11-30T03:32:10;35.60;;;19.95;;
40044;SDS011;25735;48.122;11.422;2022-11-30T03:34:35;38.85;;;19.92;;
40044;SDS011;25735;48.122;11.422;2022-11-30T03:37:01;36.05;;;18.58;;
40044;SDS011;25735;48.122;11.422;2022-11-30T03:39:26;36.95;;;19.73;;
40044;SDS011;25735;48.122;11.422;2022-11-30T03:41:51;38.67;;;19.35;;
40044;SDS011;25735;48.122;11.422;2022-11-30T03:44:17;37.97;;;19.85;;
40044;SDS011;25735;48.122;11.422;2022-11-30T03:46:42;42.80;;;20.38;;
40044;SDS011;25735;48.122;11.422;2022-11-30T03:49:08;38.20;;;19.70;;
40044;SDS011;25735;48.122;11.422;2022-11-30T03:51:33;31.90;;;17.75;;
40044;SDS011;25735;48.122;11.422;2022-11-30T03:53:58;34.30;;;18.02;;
40044;SDS011;25735;48.122;11.422;2022-11-30T03:56:23;32.45;;;19.50;;
40044;SDS011;25735;48.122;11.422;2022-11-30T03:58:49;29.90;;;16.83;;
40044;SDS011;25735;48.122;11.422;2022-11-30T04:01:15;32.88;;;16.77;;
40044;SDS011;25735;48.122;11.422;2022-11-30T04:03:43;30.08;;;16.73;;
40044;SDS011;25735;48.122;11.422;2022-11-30T04:06:09;29.38;;;16.23;;
40044;SDS011;25735;48.122;11.422;2022-11-30T04:08:36;29.98;;;16.55;;
40044;SDS011;25735;48.122;11.422;2022-11-30T04:11:03;27.65;;;15.90;;
40044;SDS011;25735;48.122;11.422;2022-11-30T04:13:29;29.27;;;15.50;;
40044;SDS011;25735;48.122;11.422;2022-11-30T04:15:56;26.85;;;14.38;;
40044;SDS011;25735;48.122;11.422;2022-11-30T04:18:22;24.27;;;14.00;;
40044;SDS011;25735;48.122;11.422;2022-11-30T04:20:49;28.48;;;16.58;;
40044;SDS011;25735;48.122;11.422;2022-11-30T04:23:16;29.85;;;15.50;;
40044;SDS011;25735;48.122;11.422;2022-11-30T04:25:42;30.35;;;17.20;;
40044;SDS011;25735;48.122;11.422;2022-11-30T04:28:08;30.15;;;16.25;;
40044;SDS011;25735;48.122;11.422;2022-11-30T04:30:34;25.48;;;14.85;;
40044;SDS011;25735;48.122;11.422;2022-11-30T04:33:00;28.73;;;16.42;;
40044;SDS011;25735;48.122;11.422;2022-11-30T04:35:26;29.85;;;15.63;;
40044;SDS011;25735;48.122;11.422;2022-11-30T04:37:52;26.25;;;15.50;;
40044;SDS011;25735;48.122;11.422;2022-11-30T04:40:17;28.70;;;15.68;;
40044;SDS011;25735;48.122;11.422;2022-11-30T04:42:42;28.40;;;16.73;;
40044;SDS011;25735;48.122;11.422;2022-11-30T04:45:08;28.33;;;15.43;;
40044;SDS011;25735;48.122;11.422;2022-11-30T04:47:33;28.17;;;15.93;;
40044;SDS011;25735;48.122;11.422;2022-11-30T04:49:59;25.10;;;15.20;;
40044;SDS011;25735;48.122;11.422;2022-11-30T04:52:24;30.17;;;14.93;;
40044;SDS011;25735;48.122;11.422;2022-11-30T04:54:49;27.35;;;14.88;;
40044;SDS011;25735;48.122;11.422;2022-11-30T04:57:16;31.23;;;16.48;;
40044;SDS011;25735;48.122;11.422;2022-11-30T04:59:41;29.05;;;16.30;;
40044;SDS011;25735;48.122;11.422;2022-11-30T05:02:06;26.85;;;15.02;;
40044;SDS011;25735;48.122;11.422;2022-11-30T05:04:32;27.30;;;15.63;;
40044;SDS011;25735;48.122;11.422;2022-11-30T05:06:57;30.02;;;14.20;;
40044;SDS011;25735;48.122;11.422;2022-11-30T05:09:22;25.95;;;14.45;;
40044;SDS011;25735;48.122;11.422;2022-11-30T05:11:47;26.50;;;15.07;;
40044;SDS011;25735;48.122;11.422;2022-11-30T05:14:13;24.13;;;12.90;;
40044;SDS011;25735;48.122;11.422;2022-11-30T05:16:38;21.77;;;12.27;;
40044;SDS011;25735;48.122;11.422;2022-11-30T05:19:03;23.33;;;12.32;;
40044;SDS011;25735;48.122;11.422;2022-11-30T05:21:29;25.38;;;13.70;;
40044;SDS011;25735;48.122;11.422;2022-11-30T05:23:55;25.70;;;13.30;;
40044;SDS011;25735;48.122;11.422;2022-11-30T05:26:20;19.88;;;11.90;;
40044;SDS011;25735;48.122;11.422;2022-11-30T05:28:45;27.55;;;13.70;;
40044;SDS011;25735;48.122;11.422;2022-11-30T05:31:11;21.13;;;12.63;;
40044;SDS011;25735;48.122;11.422;2022-11-30T05:33:36;22.63;;;13.52;;
40044;SDS011;25735;48.122;11.422;2022-11-30T05:36:01;25.27;;;14.30;;
40044;SDS011;25735;48.122;11.422;2022-11-30T05:38:27;26.60;;;15.25;;
40044;SDS011;25735;48.122;11.422;2022-11-30T05:40:57;26.85;;;14.10;;
40044;SDS011;25735;48.122;11.422;2022-11-30T05:43:26;31.15;;;15.63;;
40044;SDS011;25735;48.122;11.422;2022-11-30T05:45:57;24.05;;;13.23;;
40044;SDS011;25735;48.122;11.422;2022-11-30T05:48:24;25.02;;;14.73;;
40044;SDS011;25735;48.122;11.422;2022-11-30T05:50:50;23.88;;;13.98;;
40044;SDS011;25735;48.122;11.422;2022-11-30T05:53:15;23.30;;;13.55;;
40044;SDS011;25735;48.122;11.422;2022-11-30T05:55:40;24.27;;;13.98;;
40044;SDS011;25735;48.122;11.422;2022-11-30T05:58:06;24.40;;;13.77;;
40044;SDS011;25735;48.122;11.422;2022-11-30T06:00:31;23.52;;;14.15;;
40044;SDS011;25735;48.122;11.422;2022-11-30T06:02:56;26.05;;;14.55;;
40044;SDS011;25735;48.122;11.422;2022-11-30T06:05:22;27.05;;;14.90;;
40044;SDS011;25735;48.122;11.422;2022-11-30T06:07:47;27.85;;;16.15;;
40044;SDS011;25735;48.122;11.422;2022-11-30T06:10:13;25.42;;;14.15;;
40044;SDS011;25735;48.122;11.422;2022-11-30T06:12:38;25.63;;;14.73;;
40044;SDS011;25735;48.122;11.422;2022-11-30T06:15:03;24.73;;;13.60;;
40044;SDS011;25735;48.122;11.422;2022-11-30T06:17:29;25.50;;;14.77;;
40044;SDS011;25735;48.122;11.422;2022-11-30T06:19:54;25.38;;;14.60;;
40044;SDS011;25735;48.122;11.422;2022-11-30T06:22:19;21.60;;;14.30;;
40044;SDS011;25735;48.122;11.422;2022-11-30T06:24:45;27.23;;;15.50;;
40044;SDS011;25735;48.122;11.422;2022-11-30T06:27:10;23.85;;;14.10;;
40044;SDS011;25735;48.122;11.422;2022-11-30T06:29:35;24.83;;;14.57;;
40044;SDS011;25735;48.122;11.422;2022-11-30T06:32:00;21.90;;;13.27;;
40044;SDS011;25735;48.122;11.422;2022-11-30T06:34:25;22.25;;;12.95;;
40044;SDS011;25735;48.122;11.422;2022-11-30T06:36:51;22.23;;;13.20;;
40044;SDS011;25735;48.122;11.422;2022-11-30T06:39:16;20.85;;;12.13;;
40044;SDS011;25735;48.122;11.422;2022-11-30T06:41:41;22.58;;;13.00;;
40044;SDS011;25735;48.122;11.422;2022-11-30T06:44:10;22.67;;;13.10;;
40044;SDS011;25735;48.122;11.422;2022-11-30T06:46:35;21.95;;;11.82;;
40044;SDS011;25735;48.122;11.422;2022-11-30T06:49:00;26.60;;;14.75;;
40044;SDS011;25735;48.122;11.422;2022-11-30T06:51:26;20.90;;;13.05;;
40044;SDS011;25735;48.122;11.422;2022-11-30T06:53:51;23.33;;;12.73;;
40044;SDS011;25735;48.122;11.422;2022-11-30T06:56:16;20.55;;;12.70;;
40044;SDS011;25735;48.122;11.422;2022-11-30T06:58:42;21.52;;;12.25;;
40044;SDS011;25735;48.122;11.422;2022-11-30T07:01:09;20.63;;;12.32;;
40044;SDS011;25735;48.122;11.422;2022-11-30T07:03:37;19.30;;;11.88;;
40044;SDS011;25735;48.122;11.422;2022-11-30T07:06:12;21.98;;;12.02;;
40044;SDS011;25735;48.122;11.422;2022-11-30T07:08:38;22.77;;;14.48;;
40044;SDS011;25735;48.122;11.422;2022-11-30T07:11:05;24.27;;;12.95;;
40044;SDS011;25735;48.122;11.422;2022-11-30T07:13:31;24.10;;;14.00;;
40044;SDS011;25735;48.122;11.422;2022-11-30T07:15:56;22.55;;;12.43;;
40044;SDS011;25735;48.122;11.422;2022-11-30T07:18:21;23.45;;;13.48;;
40044;SDS011;25735;48.122;11.422;2022-11-30T07:20:47;24.35;;;13.57;;
40044;SDS011;25735;48.122;11.422;2022-11-30T07:23:12;23.60;;;13.88;;
40044;SDS011;25735;48.122;11.422;2022-11-30T07:25:58;23.67;;;13.52;;
40044;SDS011;25735;48.122;11.422;2022-11-30T07:28:34;25.63;;;13.75;;
40044;SDS011;25735;48.122;11.422;2022-11-30T07:31:17;24.50;;;14.52;;
40044;SDS011;25735;48.122;11.422;2022-11-30T07:33:44;23.58;;;13.95;;
40044;SDS011;25735;48.122;11.422;2022-11-30T07:36:10;21.38;;;13.20;;
40044;SDS011;25735;48.122;11.422;2022-11-30T07:38:36;22.80;;;13.68;;
40044;SDS011;25735;48.122;11.422;2022-11-30T07:41:02;22.77;;;14.40;;
40044;SDS011;25735;48.122;11.422;2022-11-30T07:43:27;22.38;;;13.30;;
40044;SDS011;25735;48.122;11.422;2022-11-30T07:45:53;24.73;;;13.65;;
40044;SDS011;25735;48.122;11.422;2022-11-30T07:48:19;21.33;;;13.07;;
40044;SDS011;25735;48.122;11.422;2022-11-30T07:50:45;24.75;;;11.70;;
40044;SDS011;25735;48.122;11.422;2022-11-30T07:53:11;18.98;;;11.13;;
40044;SDS011;25735;48.122;11.422;2022-11-30T07:55:36;17.85;;;10.65;;
40044;SDS011;25735;48.122;11.422;2022-11-30T07:58:01;14.20;;;9.18;;
40044;SDS011;25735;48.122;11.422;2022-11-30T08:00:27;15.40;;;8.98;;
40044;SDS011;25735;48.122;11.422;2022-11-30T08:02:52;13.15;;;8.75;;
40044;SDS011;25735;48.122;11.422;2022-11-30T08:05:17;13.73;;;8.15;;
40044;SDS011;25735;48.122;11.422;2022-11-30T08:07:42;14.18;;;8.57;;
40044;SDS011;25735;48.122;11.422;2022-11-30T08:10:09;14.85;;;9.88;;
40044;SDS011;25735;48.122;11.422;2022-11-30T08:12:35;15.45;;;9.73;;
40044;SDS011;25735;48.122;11.422;2022-11-30T08:15:01;14.82;;;9.23;;
40044;SDS011;25735;48.122;11.422;2022-11-30T08:17:26;15.88;;;9.90;;
40044;SDS011;25735;48.122;11.422;2022-11-30T08:19:51;14.27;;;9.32;;
40044;SDS011;25735;48.122;11.422;2022-11-30T08:22:16;17.42;;;10.13;;
40044;SDS011;25735;48.122;11.422;2022-11-30T08:24:42;18.65;;;10.73;;
40044;SDS011;25735;48.122;11.422;2022-11-30T08:27:07;19.98;;;12.07;;
40044;SDS011;25735;48.122;11.422;2022-11-30T08:29:32;19.25;;;11.77;;
40044;SDS011;25735;48.122;11.422;2022-11-30T08:31:57;16.60;;;10.07;;
40044;SDS011;25735;48.122;11.422;2022-11-30T08:34:23;16.08;;;10.45;;
40044;SDS011;25735;48.122;11.422;2022-11-30T08:36:48;15.82;;;9.52;;
40044;SDS011;25735;48.122;11.422;2022-11-30T08:39:16;12.75;;;8.40;;
40044;SDS011;25735;48.122;11.422;2022-11-30T08:41:41;14.07;;;8.85;;
40044;SDS011;25735;48.122;11.422;2022-11-30T08:44:06;15.05;;;10.07;;
40044;SDS011;25735;48.122;11.422;2022-11-30T08:46:32;18.38;;;11.13;;
40044;SDS011;25735;48.122;11.422;2022-11-30T08:48:57;20.15;;;12.55;;
40044;SDS011;25735;48.122;11.422;2022-11-30T08:51:22;20.45;;;12.50;;
40044;SDS011;25735;48.122;11.422;2022-11-30T08:53:48;21.30;;;12.05;;
40044;SDS011;25735;48.122;11.422;2022-11-30T08:56:17;19.77;;;12.50;;
40044;SDS011;25735;48.122;11.422;2022-11-30T08:58:44;21.00;;;12.33;;
40044;SDS011;25735;48.122;11.422;2022-11-30T09:01:12;18.80;;;11.63;;
40044;SDS011;25735;48.122;11.422;2022-11-30T09:03:42;20.45;;;12.10;;
40044;SDS011;25735;48.122;11.422;2022-11-30T09:06:13;19.73;;;12.82;;
40044;SDS011;25735;48.122;11.422;2022-11-30T09:08:40;23.00;;;12.68;;
40044;SDS011;25735;48.122;11.422;2022-11-30T09:11:10;23.83;;;13.85;;
40044;SDS011;25735;48.122;11.422;2022-11-30T09:13:36;20.88;;;12.88;;
40044;SDS011;25735;48.122;11.422;2022-11-30T09:16:01;23.25;;;14.52;;
40044;SDS011;25735;48.122;11.422;2022-11-30T09:18:27;23.98;;;14.15;;
40044;SDS011;25735;48.122;11.422;2022-11-30T09:20:52;26.55;;;14.93;;
40044;SDS011;25735;48.122;11.422;2022-11-30T09:23:23;24.27;;;14.32;;
40044;SDS011;25735;48.122;11.422;2022-11-30T09:25:53;24.27;;;14.55;;
40044;SDS011;25735;48.122;11.422;2022-11-30T09:28:20;17.77;;;11.20;;
40044;SDS011;25735;48.122;11.422;2022-11-30T09:30:45;25.77;;;14.77;;
40044;SDS011;25735;48.122;11.422;2022-11-30T09:33:10;25.65;;;14.63;;
40044;SDS011;25735;48.122;11.422;2022-11-30T09:35:35;24.77;;;14.50;;
40044;SDS011;25735;48.122;11.422;2022-11-30T09:38:00;21.58;;;14.35;;
40044;SDS011;25735;48.122;11.422;2022-11-30T09:40:26;22.33;;;13.38;;
40044;SDS011;25735;48.122;11.422;2022-11-30T09:45:40;23.85;;;13.43;;
40044;SDS011;25735;48.122;11.422;2022-11-30T09:48:21;24.85;;;16.00;;
40044;SDS011;25735;48.122;11.422;2022-11-30T09:50:54;25.65;;;13.55;;
40044;SDS011;25735;48.122;11.422;2022-11-30T09:53:33;26.33;;;13.43;;
40044;SDS011;25735;48.122;11.422;2022-11-30T09:56:04;21.33;;;13.00;;
40044;SDS011;25735;48.122;11.422;2022-11-30T09:59:02;22.83;;;13.52;;
40044;SDS011;25735;48.122;11.422;2022-11-30T10:01:32;23.97;;;13.50;;
40044;SDS011;25735;48.122;11.422;2022-11-30T10:03:58;23.10;;;12.88;;
40044;SDS011;25735;48.122;11.422;2022-11-30T10:07:01;19.95;;;11.90;;
40044;SDS011;25735;48.122;11.422;2022-11-30T10:09:46;20.48;;;13.65;;
40044;SDS011;25735;48.122;11.422;2022-11-30T10:12:23;19.45;;;12.18;;
40044;SDS011;25735;48.122;11.422;2022-11-30T10:14:59;21.05;;;12.32;;
40044;SDS011;25735;48.122;11.422;2022-11-30T10:27:49;21.33;;;12.77;;
40044;SDS011;25735;48.122;11.422;2022-11-30T10:30:18;18.95;;;12.07;;
40044;SDS011;25735;48.122;11.422;2022-11-30T10:32:55;21.92;;;13.52;;
40044;SDS011;25735;48.122;11.422;2022-11-30T10:35:32;21.80;;;12.18;;
40044;SDS011;25735;48.122;11.422;2022-11-30T10:38:02;20.48;;;11.45;;
40044;SDS011;25735;48.122;11.422;2022-11-30T10:40:36;18.55;;;10.88;;
40044;SDS011;25735;48.122;11.422;2022-11-30T10:45:47;19.42;;;11.70;;
40044;SDS011;25735;48.122;11.422;2022-11-30T10:48:16;21.15;;;13.23;;
40044;SDS011;25735;48.122;11.422;2022-11-30T10:50:47;20.25;;;12.82;;
40044;SDS011;25735;48.122;11.422;2022-11-30T10:53:12;21.55;;;12.70;;
40044;SDS011;25735;48.122;11.422;2022-11-30T10:55:40;19.35;;;11.70;;
40044;SDS011;25735;48.122;11.422;2022-11-30T11:01:09;16.83;;;10.63;;
40044;SDS011;25735;48.122;11.422;2022-11-30T11:04:03;18.80;;;11.73;;
40044;SDS011;25735;48.122;11.422;2022-11-30T11:06:32;16.67;;;11.52;;
40044;SDS011;25735;48.122;11.422;2022-11-30T11:08:57;15.60;;;11.15;;
40044;SDS011;25735;48.122;11.422;2022-11-30T11:14:33;16.85;;;11.27;;
40044;SDS011;25735;48.122;11.422;2022-11-30T11:22:05;15.95;;;10.60;;
40044;SDS011;25735;48.122;11.422;2022-11-30T11:24:36;16.60;;;10.77;;
40044;SDS011;25735;48.122;11.422;2022-11-30T11:27:02;19.10;;;11.10;;
40044;SDS011;25735;48.122;11.422;2022-11-30T11:29:31;15.80;;;9.88;;
40044;SDS011;25735;48.122;11.422;2022-11-30T11:32:31;14.95;;;10.45;;
40044;SDS011;25735;48.122;11.422;2022-11-30T11:34:50;19.30;;;11.10;;
40044;SDS011;25735;48.122;11.422;2022-11-30T11:37:23;15.23;;;9.63;;
40044;SDS011;25735;48.122;11.422;2022-11-30T11:40:00;16.85;;;10.75;;
40044;SDS011;25735;48.122;11.422;2022-11-30T11:42:51;17.13;;;10.60;;
40044;SDS011;25735;48.122;11.422;2022-11-30T11:45:20;18.08;;;9.93;;
40044;SDS011;25735;48.122;11.422;2022-11-30T11:48:00;13.30;;;9.95;;
40044;SDS011;25735;48.122;11.422;2022-11-30T11:53:17;13.93;;;9.35;;
40044;SDS011;25735;48.122;11.422;2022-11-30T11:56:09;15.02;;;9.63;;
40044;SDS011;25735;48.122;11.422;2022-11-30T11:58:49;15.00;;;9.32;;
40044;SDS011;25735;48.122;11.422;2022-11-30T12:03:58;13.43;;;8.38;;
40044;SDS011;25735;48.122;11.422;2022-11-30T12:06:35;12.45;;;8.70;;
40044;SDS011;25735;48.122;11.422;2022-11-30T12:09:04;13.40;;;8.75;;
40044;SDS011;25735;48.122;11.422;2022-11-30T12:11:43;13.73;;;8.57;;
40044;SDS011;25735;48.122;11.422;2022-11-30T12:14:11;12.18;;;7.70;;
40044;SDS011;25735;48.122;11.422;2022-11-30T12:26:56;12.45;;;8.52;;
40044;SDS011;25735;48.122;11.422;2022-11-30T12:38:43;14.10;;;9.43;;
40044;SDS011;25735;48.122;11.422;2022-11-30T12:46:44;17.23;;;10.60;;
40044;SDS011;25735;48.122;11.422;2022-11-30T12:57:18;17.90;;;11.85;;
40044;SDS011;25735;48.122;11.422;2022-11-30T13:10:55;17.45;;;11.05;;
40044;SDS011;25735;48.122;11.422;2022-11-30T13:13:30;19.35;;;11.30;;
40044;SDS011;25735;48.122;11.422;2022-11-30T13:15:58;16.65;;;10.77;;
40044;SDS011;25735;48.122;11.422;2022-11-30T13:18:27;16.90;;;10.73;;
40044;SDS011;25735;48.122;11.422;2022-11-30T13:29:20;16.42;;;9.93;;
40044;SDS011;25735;48.122;11.422;2022-11-30T13:31:52;15.00;;;9.52;;
40044;SDS011;25735;48.122;11.422;2022-11-30T13:34:27;17.35;;;11.38;;
40044;SDS011;25735;48.122;11.422;2022-11-30T13:42:27;19.85;;;10.50;;
40044;SDS011;25735;48.122;11.422;2022-11-30T13:47:43;16.15;;;9.85;;
40044;SDS011;25735;48.122;11.422;2022-11-30T13:58:05;13.63;;;9.27;;
40044;SDS011;25735;48.122;11.422;2022-11-30T14:05:39;16.35;;;10.07;;
40044;SDS011;25735;48.122;11.422;2022-11-30T14:08:09;15.77;;;9.30;;
40044;SDS011;25735;48.122;11.422;2022-11-30T14:10:39;15.82;;;9.75;;
40044;SDS011;25735;48.122;11.422;2022-11-30T14:18:26;17.15;;;10.30;;
40044;SDS011;25735;48.122;11.422;2022-11-30T14:20:58;15.50;;;9.70;;
40044;SDS011;25735;48.122;11.422;2022-11-30T14:23:29;15.52;;;9.40;;
40044;SDS011;25735;48.122;11.422;2022-11-30T14:26:03;15.48;;;10.13;;
40044;SDS011;25735;48.122;11.422;2022-11-30T14:36:22;11.07;;;7.70;;
40044;SDS011;25735;48.122;11.422;2022-11-30T14:38:51;14.65;;;9.27;;
40044;SDS011;25735;48.122;11.422;2022-11-30T14:41:26;15.73;;;10.32;;
40044;SDS011;25735;48.122;11.422;2022-11-30T14:43:57;16.02;;;9.20;;
40044;SDS011;25735;48.122;11.422;2022-11-30T14:46:28;18.02;;;9.90;;
40044;SDS011;25735;48.122;11.422;2022-11-30T14:51:29;16.08;;;11.23;;
40044;SDS011;25735;48.122;11.422;2022-11-30T14:53:57;18.92;;;10.82;;
40044;SDS011;25735;48.122;11.422;2022-11-30T14:56:31;17.40;;;11.23;;
40044;SDS011;25735;48.122;11.422;2022-11-30T15:01:47;22.83;;;12.18;;
40044;SDS011;25735;48.122;11.422;2022-11-30T15:04:13;18.80;;;12.13;;
40044;SDS011;25735;48.122;11.422;2022-11-30T15:06:40;17.48;;;11.18;;
40044;SDS011;25735;48.122;11.422;2022-11-30T15:09:17;21.77;;;12.32;;
40044;SDS011;25735;48.122;11.422;2022-11-30T15:11:45;19.77;;;12.18;;
40044;SDS011;25735;48.122;11.422;2022-11-30T15:14:13;22.88;;;12.70;;
40044;SDS011;25735;48.122;11.422;2022-11-30T15:16:45;20.63;;;13.50;;
40044;SDS011;25735;48.122;11.422;2022-11-30T15:19:24;27.45;;;15.73;;
40044;SDS011;25735;48.122;11.422;2022-11-30T15:21:54;23.52;;;15.13;;
40044;SDS011;25735;48.122;11.422;2022-11-30T15:24:21;24.77;;;16.85;;
40044;SDS011;25735;48.122;11.422;2022-11-30T15:29:52;25.73;;;16.13;;
40044;SDS011;25735;48.122;11.422;2022-11-30T15:32:22;28.10;;;16.35;;
40044;SDS011;25735;48.122;11.422;2022-11-30T15:34:53;25.67;;;15.98;;
40044;SDS011;25735;48.122;11.422;2022-11-30T15:37:26;24.20;;;15.00;;
40044;SDS011;25735;48.122;11.422;2022-11-30T15:39:54;26.90;;;16.05;;
40044;SDS011;25735;48.122;11.422;2022-11-30T15:42:43;25.88;;;16.35;;
40044;SDS011;25735;48.122;11.422;2022-11-30T15:47:42;29.25;;;17.02;;
40044;SDS011;25735;48.122;11.422;2022-11-30T15:52:55;27.90;;;16.73;;
40044;SDS011;25735;48.122;11.422;2022-11-30T16:01:10;25.48;;;15.82;;
40044;SDS011;25735;48.122;11.422;2022-11-30T16:03:56;27.80;;;16.33;;
40044;SDS011;25735;48.122;11.422;2022-11-30T16:09:26;27.60;;;17.55;;
40044;SDS011;25735;48.122;11.422;2022-11-30T16:11:57;30.25;;;16.55;;
40044;SDS011;25735;48.122;11.422;2022-11-30T16:14:24;26.45;;;16.42;;
40044;SDS011;25735;48.122;11.422;2022-11-30T16:16:49;26.45;;;16.00;;
40044;SDS011;25735;48.122;11.422;2022-11-30T16:19:17;28.55;;;16.10;;
40044;SDS011;25735;48.122;11.422;2022-11-30T16:21:42;25.63;;;15.68;;
40044;SDS011;25735;48.122;11.422;2022-11-30T16:24:10;24.45;;;15.70;;
40044;SDS011;25735;48.122;11.422;2022-11-30T16:26:37;25.60;;;15.73;;
40044;SDS011;25735;48.122;11.422;2022-11-30T16:29:03;25.05;;;16.05;;
40044;SDS011;25735;48.122;11.422;2022-11-30T16:31:28;25.55;;;15.75;;
40044;SDS011;25735;48.122;11.422;2022-11-30T16:33:53;24.17;;;15.70;;
40044;SDS011;25735;48.122;11.422;2022-11-30T16:36:19;25.08;;;16.35;;
40044;SDS011;25735;48.122;11.422;2022-11-30T16:38:45;25.30;;;16.08;;
40044;SDS011;25735;48.122;11.422;2022-11-30T16:41:16;25.73;;;16.63;;
40044;SDS011;25735;48.122;11.422;2022-11-30T16:43:49;28.95;;;17.90;;
40044;SDS011;25735;48.122;11.422;2022-11-30T16:46:17;24.92;;;15.40;;
40044;SDS011;25735;48.122;11.422;2022-11-30T16:48:44;26.70;;;17.30;;
40044;SDS011;25735;48.122;11.422;2022-11-30T16:51:11;27.95;;;16.40;;
40044;SDS011;25735;48.122;11.422;2022-11-30T16:53:40;26.08;;;16.55;;
40044;SDS011;25735;48.122;11.422;2022-11-30T16:56:08;27.92;;;16.83;;
40044;SDS011;25735;48.122;11.422;2022-11-30T16:58:35;26.60;;;16.95;;